CYBU

Nipawin Airport

Nipawin, Saskatchewan, Canada
METAR CYBU 180100Z AUTO 25004KT 9SM -SN OVC020 M11/M14 A3009 RMK SLP227
Observed Flight Rules
Nov-18 @ 01:00 UTC (55 minutes ago) Marginal Visual Flight Rules
Wind Visibility Clouds Conditions
250° at 4 knots 9 miles
  • Overcast at 2,000' AGL
  • Light Snow
Temperatures Readings
Current -11°C / 12°F
Dewpoint -14°C / 7°F
Humidity 79%
Altimeter 30.09" Hg
Pressure 1022.7 hPa
Elevation 374
METAR CYBU 180100Z AUTO 25004KT 9SM -SN OVC020 M11/M14 A3009 RMK SLP227
Observed Flight Rules
Nov-18 @ 01:00 UTC
(55 minutes ago)
MVFR
Wind Visibility
250° at 4 knots 9 miles
Clouds
  • Overcast at 2,000' AGL
Conditions
  • Light Snow
Temperature Dewpoint
-11°C / 12°F -14°C / 7°F
Humidity Altimeter Pressure
79% 30.09" Hg 1022.7 hPa